Airport Information

KHIO - Portland Hillsboro Airport

KHIO 191853Z 28006KT 10SM BKN050 OVC060 17/07 A3026 RMK AO2 SLP245 T01670067


  • General Information

  • Coordinates: N 45°32'25"/ W 122°56'59"
  • Location: N/A
  • Surveyed Elevation: 204 MSL

Operations

Flow Name Active Runways Conditions

Green background denotes normal operations.


Common Frequencies

Callsign Frequency Position Name

More at the Document Center


Charts

Name Description Cycle
BERNI THREE Page 1 1904
CANBY TWO Page 1 | Page 2 1904
CHISM FOUR Page 1 1904
FARMINGTON SEVEN Page 1 | Page 2 1904
SCAPO SEVEN Page 1 | Page 2 1904
Name Description Cycle
HELNS SIX Page 1 1904
OCITY TWO Page 1 1904